sensor_id;sensor_type;location;lat;lon;timestamp;P1;durP1;ratioP1;P2;durP2;ratioP2
45760;SDS011;31471;51.040;14.414;2022-11-20T00:03:17;24.10;;;10.55;;
45760;SDS011;31471;51.040;14.414;2022-11-20T00:08:09;30.13;;;10.38;;
45760;SDS011;31471;51.040;14.414;2022-11-20T00:13:04;30.27;;;11.23;;
45760;SDS011;31471;51.040;14.414;2022-11-20T00:17:55;27.63;;;10.52;;
45760;SDS011;31471;51.040;14.414;2022-11-20T00:22:46;29.80;;;10.95;;
45760;SDS011;31471;51.040;14.414;2022-11-20T00:27:38;33.42;;;11.70;;
45760;SDS011;31471;51.040;14.414;2022-11-20T00:32:29;30.35;;;11.30;;
45760;SDS011;31471;51.040;14.414;2022-11-20T00:37:20;30.65;;;11.13;;
45760;SDS011;31471;51.040;14.414;2022-11-20T00:39:46;27.23;;;10.90;;
45760;SDS011;31471;51.040;14.414;2022-11-20T00:42:12;27.65;;;11.02;;
45760;SDS011;31471;51.040;14.414;2022-11-20T00:44:37;31.95;;;12.40;;
45760;SDS011;31471;51.040;14.414;2022-11-20T00:47:03;29.35;;;10.73;;
45760;SDS011;31471;51.040;14.414;2022-11-20T00:49:28;25.00;;;11.18;;
45760;SDS011;31471;51.040;14.414;2022-11-20T00:51:54;26.63;;;11.20;;
45760;SDS011;31471;51.040;14.414;2022-11-20T00:56:45;27.27;;;10.13;;
45760;SDS011;31471;51.040;14.414;2022-11-20T00:59:11;26.73;;;10.43;;
45760;SDS011;31471;51.040;14.414;2022-11-20T01:01:36;25.40;;;10.32;;
45760;SDS011;31471;51.040;14.414;2022-11-20T01:04:02;27.25;;;11.20;;
45760;SDS011;31471;51.040;14.414;2022-11-20T01:08:56;27.33;;;10.68;;
45760;SDS011;31471;51.040;14.414;2022-11-20T01:11:25;27.15;;;11.30;;
45760;SDS011;31471;51.040;14.414;2022-11-20T01:13:52;27.13;;;10.48;;
45760;SDS011;31471;51.040;14.414;2022-11-20T01:16:24;29.05;;;12.02;;
45760;SDS011;31471;51.040;14.414;2022-11-20T01:18:52;24.02;;;10.80;;
45760;SDS011;31471;51.040;14.414;2022-11-20T01:21:23;27.25;;;11.18;;
45760;SDS011;31471;51.040;14.414;2022-11-20T01:23:51;33.53;;;11.32;;
45760;SDS011;31471;51.040;14.414;2022-11-20T01:26:21;29.90;;;12.13;;
45760;SDS011;31471;51.040;14.414;2022-11-20T01:28:48;25.55;;;11.02;;
45760;SDS011;31471;51.040;14.414;2022-11-20T01:31:33;29.83;;;13.25;;
45760;SDS011;31471;51.040;14.414;2022-11-20T01:34:01;18.80;;;8.83;;
45760;SDS011;31471;51.040;14.414;2022-11-20T01:36:29;26.42;;;11.45;;
45760;SDS011;31471;51.040;14.414;2022-11-20T01:39:00;28.25;;;11.93;;
45760;SDS011;31471;51.040;14.414;2022-11-20T01:41:28;29.42;;;12.27;;
45760;SDS011;31471;51.040;14.414;2022-11-20T01:44:18;31.23;;;12.20;;
45760;SDS011;31471;51.040;14.414;2022-11-20T01:46:54;31.50;;;11.63;;
45760;SDS011;31471;51.040;14.414;2022-11-20T01:49:47;30.75;;;12.98;;
45760;SDS011;31471;51.040;14.414;2022-11-20T01:52:41;24.58;;;11.70;;
45760;SDS011;31471;51.040;14.414;2022-11-20T01:55:13;31.73;;;11.57;;
45760;SDS011;31471;51.040;14.414;2022-11-20T01:57:44;29.67;;;11.18;;
45760;SDS011;31471;51.040;14.414;2022-11-20T02:00:13;27.02;;;10.57;;
45760;SDS011;31471;51.040;14.414;2022-11-20T02:02:42;27.67;;;11.57;;
45760;SDS011;31471;51.040;14.414;2022-11-20T02:05:16;25.52;;;11.18;;
45760;SDS011;31471;51.040;14.414;2022-11-20T02:07:48;30.42;;;11.93;;
45760;SDS011;31471;51.040;14.414;2022-11-20T02:10:14;24.95;;;11.00;;
45760;SDS011;31471;51.040;14.414;2022-11-20T02:15:24;24.88;;;10.77;;
45760;SDS011;31471;51.040;14.414;2022-11-20T02:20:16;28.00;;;10.85;;
45760;SDS011;31471;51.040;14.414;2022-11-20T02:22:45;28.65;;;11.30;;
45760;SDS011;31471;51.040;14.414;2022-11-20T02:25:22;28.25;;;11.95;;
45760;SDS011;31471;51.040;14.414;2022-11-20T02:27:50;27.20;;;11.15;;
45760;SDS011;31471;51.040;14.414;2022-11-20T02:32:41;26.85;;;10.57;;
45760;SDS011;31471;51.040;14.414;2022-11-20T02:37:34;31.15;;;10.30;;
45760;SDS011;31471;51.040;14.414;2022-11-20T02:40:02;24.95;;;9.70;;
45760;SDS011;31471;51.040;14.414;2022-11-20T02:44:53;23.20;;;9.95;;
45760;SDS011;31471;51.040;14.414;2022-11-20T02:47:18;31.90;;;11.20;;
45760;SDS011;31471;51.040;14.414;2022-11-20T02:52:09;27.33;;;10.38;;
45760;SDS011;31471;51.040;14.414;2022-11-20T02:54:35;30.40;;;11.48;;
45760;SDS011;31471;51.040;14.414;2022-11-20T02:59:26;28.10;;;9.75;;
45760;SDS011;31471;51.040;14.414;2022-11-20T03:01:52;25.23;;;10.20;;
45760;SDS011;31471;51.040;14.414;2022-11-20T03:04:17;25.45;;;10.18;;
45760;SDS011;31471;51.040;14.414;2022-11-20T03:06:43;24.35;;;10.35;;
45760;SDS011;31471;51.040;14.414;2022-11-20T03:09:08;25.98;;;11.05;;
45760;SDS011;31471;51.040;14.414;2022-11-20T03:14:03;23.13;;;8.95;;
45760;SDS011;31471;51.040;14.414;2022-11-20T03:16:30;25.25;;;10.93;;
45760;SDS011;31471;51.040;14.414;2022-11-20T03:18:56;23.58;;;10.55;;
45760;SDS011;31471;51.040;14.414;2022-11-20T03:23:47;25.40;;;10.50;;
45760;SDS011;31471;51.040;14.414;2022-11-20T03:28:50;27.50;;;10.25;;
45760;SDS011;31471;51.040;14.414;2022-11-20T03:31:18;24.77;;;10.60;;
45760;SDS011;31471;51.040;14.414;2022-11-20T03:33:45;28.33;;;10.85;;
45760;SDS011;31471;51.040;14.414;2022-11-20T03:38:37;23.88;;;9.32;;
45760;SDS011;31471;51.040;14.414;2022-11-20T03:43:33;26.42;;;10.55;;
45760;SDS011;31471;51.040;14.414;2022-11-20T03:48:25;28.42;;;10.63;;
45760;SDS011;31471;51.040;14.414;2022-11-20T03:50:52;30.08;;;10.50;;
45760;SDS011;31471;51.040;14.414;2022-11-20T03:53:18;26.48;;;11.02;;
45760;SDS011;31471;51.040;14.414;2022-11-20T03:55:45;29.95;;;11.50;;
45760;SDS011;31471;51.040;14.414;2022-11-20T03:58:15;26.23;;;10.95;;
45760;SDS011;31471;51.040;14.414;2022-11-20T04:03:06;23.45;;;10.10;;
45760;SDS011;31471;51.040;14.414;2022-11-20T04:07:58;28.35;;;10.80;;
45760;SDS011;31471;51.040;14.414;2022-11-20T04:12:49;27.52;;;10.05;;
45760;SDS011;31471;51.040;14.414;2022-11-20T04:17:40;29.98;;;11.13;;
45760;SDS011;31471;51.040;14.414;2022-11-20T04:22:31;24.90;;;9.70;;
45760;SDS011;31471;51.040;14.414;2022-11-20T04:27:22;25.80;;;10.55;;
45760;SDS011;31471;51.040;14.414;2022-11-20T04:29:48;28.00;;;11.85;;
45760;SDS011;31471;51.040;14.414;2022-11-20T04:34:39;27.33;;;10.50;;
45760;SDS011;31471;51.040;14.414;2022-11-20T04:37:05;36.72;;;12.25;;
45760;SDS011;31471;51.040;14.414;2022-11-20T04:41:56;36.53;;;12.05;;
45760;SDS011;31471;51.040;14.414;2022-11-20T04:44:40;32.72;;;12.15;;
45760;SDS011;31471;51.040;14.414;2022-11-20T04:49:31;34.30;;;11.88;;
45760;SDS011;31471;51.040;14.414;2022-11-20T04:54:23;29.83;;;11.68;;
45760;SDS011;31471;51.040;14.414;2022-11-20T04:59:14;31.40;;;11.63;;
45760;SDS011;31471;51.040;14.414;2022-11-20T05:01:40;33.50;;;12.93;;
45760;SDS011;31471;51.040;14.414;2022-11-20T05:06:31;30.13;;;11.43;;
45760;SDS011;31471;51.040;14.414;2022-11-20T05:11:23;26.13;;;11.27;;
45760;SDS011;31471;51.040;14.414;2022-11-20T05:16:16;39.33;;;12.73;;
45760;SDS011;31471;51.040;14.414;2022-11-20T05:18:43;34.95;;;14.43;;
45760;SDS011;31471;51.040;14.414;2022-11-20T05:23:34;33.00;;;12.05;;
45760;SDS011;31471;51.040;14.414;2022-11-20T05:28:27;36.08;;;13.07;;
45760;SDS011;31471;51.040;14.414;2022-11-20T05:30:53;42.05;;;14.10;;
45760;SDS011;31471;51.040;14.414;2022-11-20T05:35:45;36.60;;;12.75;;
45760;SDS011;31471;51.040;14.414;2022-11-20T05:38:11;35.03;;;12.63;;
45760;SDS011;31471;51.040;14.414;2022-11-20T05:43:02;35.88;;;11.85;;
45760;SDS011;31471;51.040;14.414;2022-11-20T05:47:53;33.20;;;13.73;;
45760;SDS011;31471;51.040;14.414;2022-11-20T05:50:22;36.22;;;14.27;;
45760;SDS011;31471;51.040;14.414;2022-11-20T05:55:13;41.67;;;13.70;;
45760;SDS011;31471;51.040;14.414;2022-11-20T06:00:04;34.05;;;11.77;;
45760;SDS011;31471;51.040;14.414;2022-11-20T06:02:30;37.70;;;13.38;;
45760;SDS011;31471;51.040;14.414;2022-11-20T06:04:59;38.83;;;13.13;;
45760;SDS011;31471;51.040;14.414;2022-11-20T06:09:50;30.15;;;12.10;;
45760;SDS011;31471;51.040;14.414;2022-11-20T06:14:41;32.83;;;12.40;;
45760;SDS011;31471;51.040;14.414;2022-11-20T06:19:32;33.90;;;11.38;;
45760;SDS011;31471;51.040;14.414;2022-11-20T06:24:23;30.70;;;12.02;;
45760;SDS011;31471;51.040;14.414;2022-11-20T06:26:50;38.88;;;14.30;;
45760;SDS011;31471;51.040;14.414;2022-11-20T06:31:41;32.10;;;13.38;;
45760;SDS011;31471;51.040;14.414;2022-11-20T06:36:33;31.42;;;12.65;;
45760;SDS011;31471;51.040;14.414;2022-11-20T06:41:25;35.17;;;13.05;;
45760;SDS011;31471;51.040;14.414;2022-11-20T06:43:51;35.78;;;13.50;;
45760;SDS011;31471;51.040;14.414;2022-11-20T06:48:43;36.50;;;13.93;;
45760;SDS011;31471;51.040;14.414;2022-11-20T06:53:35;30.27;;;11.45;;
45760;SDS011;31471;51.040;14.414;2022-11-20T06:56:01;33.92;;;13.10;;
45760;SDS011;31471;51.040;14.414;2022-11-20T07:00:54;34.30;;;13.63;;
45760;SDS011;31471;51.040;14.414;2022-11-20T07:03:34;31.15;;;12.68;;
45760;SDS011;31471;51.040;14.414;2022-11-20T07:08:26;35.38;;;13.40;;
45760;SDS011;31471;51.040;14.414;2022-11-20T07:13:18;29.38;;;12.02;;
45760;SDS011;31471;51.040;14.414;2022-11-20T07:18:09;38.42;;;12.82;;
45760;SDS011;31471;51.040;14.414;2022-11-20T07:20:34;32.53;;;12.75;;
45760;SDS011;31471;51.040;14.414;2022-11-20T07:25:26;37.08;;;11.88;;
45760;SDS011;31471;51.040;14.414;2022-11-20T07:27:53;34.05;;;13.00;;
45760;SDS011;31471;51.040;14.414;2022-11-20T07:30:22;32.38;;;12.35;;
45760;SDS011;31471;51.040;14.414;2022-11-20T07:35:17;27.95;;;10.90;;
45760;SDS011;31471;51.040;14.414;2022-11-20T07:40:08;28.17;;;11.75;;
45760;SDS011;31471;51.040;14.414;2022-11-20T07:45:00;28.00;;;11.23;;
45760;SDS011;31471;51.040;14.414;2022-11-20T07:49:51;31.20;;;11.27;;
45760;SDS011;31471;51.040;14.414;2022-11-20T07:52:17;33.05;;;11.82;;
45760;SDS011;31471;51.040;14.414;2022-11-20T07:54:42;23.85;;;10.88;;
45760;SDS011;31471;51.040;14.414;2022-11-20T07:57:08;23.40;;;10.52;;
45760;SDS011;31471;51.040;14.414;2022-11-20T07:59:33;30.17;;;10.50;;
45760;SDS011;31471;51.040;14.414;2022-11-20T08:01:59;26.20;;;10.25;;
45760;SDS011;31471;51.040;14.414;2022-11-20T08:04:24;26.65;;;9.50;;
45760;SDS011;31471;51.040;14.414;2022-11-20T08:06:51;26.13;;;10.35;;
45760;SDS011;31471;51.040;14.414;2022-11-20T08:09:17;22.98;;;9.75;;
45760;SDS011;31471;51.040;14.414;2022-11-20T08:11:43;23.60;;;8.88;;
45760;SDS011;31471;51.040;14.414;2022-11-20T08:14:27;21.30;;;8.82;;
45760;SDS011;31471;51.040;14.414;2022-11-20T08:16:53;25.40;;;10.73;;
45760;SDS011;31471;51.040;14.414;2022-11-20T08:19:19;20.20;;;8.82;;
45760;SDS011;31471;51.040;14.414;2022-11-20T08:21:44;23.75;;;10.20;;
45760;SDS011;31471;51.040;14.414;2022-11-20T08:24:10;21.45;;;8.73;;
45760;SDS011;31471;51.040;14.414;2022-11-20T08:26:37;21.60;;;8.98;;
45760;SDS011;31471;51.040;14.414;2022-11-20T08:29:03;20.90;;;8.93;;
45760;SDS011;31471;51.040;14.414;2022-11-20T08:31:30;16.40;;;8.18;;
45760;SDS011;31471;51.040;14.414;2022-11-20T08:36:21;18.23;;;7.38;;
45760;SDS011;31471;51.040;14.414;2022-11-20T08:38:48;21.50;;;7.60;;
45760;SDS011;31471;51.040;14.414;2022-11-20T08:41:14;21.52;;;9.68;;
45760;SDS011;31471;51.040;14.414;2022-11-20T08:43:51;19.52;;;7.93;;
45760;SDS011;31471;51.040;14.414;2022-11-20T08:46:37;20.25;;;8.20;;
45760;SDS011;31471;51.040;14.414;2022-11-20T08:49:08;19.88;;;7.47;;
45760;SDS011;31471;51.040;14.414;2022-11-20T08:51:35;24.58;;;8.85;;
45760;SDS011;31471;51.040;14.414;2022-11-20T08:54:02;18.52;;;8.70;;
45760;SDS011;31471;51.040;14.414;2022-11-20T08:56:28;20.70;;;8.90;;
45760;SDS011;31471;51.040;14.414;2022-11-20T08:58:54;19.55;;;7.95;;
45760;SDS011;31471;51.040;14.414;2022-11-20T09:01:20;18.40;;;7.20;;
45760;SDS011;31471;51.040;14.414;2022-11-20T09:03:47;19.60;;;7.63;;
45760;SDS011;31471;51.040;14.414;2022-11-20T09:06:13;17.40;;;7.40;;
45760;SDS011;31471;51.040;14.414;2022-11-20T09:08:39;22.20;;;7.78;;
45760;SDS011;31471;51.040;14.414;2022-11-20T09:11:04;17.80;;;8.35;;
45760;SDS011;31471;51.040;14.414;2022-11-20T09:13:31;19.17;;;8.13;;
45760;SDS011;31471;51.040;14.414;2022-11-20T09:15:59;23.67;;;9.68;;
45760;SDS011;31471;51.040;14.414;2022-11-20T09:18:26;18.92;;;7.78;;
45760;SDS011;31471;51.040;14.414;2022-11-20T09:20:59;20.27;;;7.97;;
45760;SDS011;31471;51.040;14.414;2022-11-20T09:23:26;17.02;;;7.05;;
45760;SDS011;31471;51.040;14.414;2022-11-20T09:25:55;19.98;;;8.77;;
45760;SDS011;31471;51.040;14.414;2022-11-20T09:28:24;19.58;;;9.25;;
45760;SDS011;31471;51.040;14.414;2022-11-20T09:30:51;23.70;;;8.43;;
45760;SDS011;31471;51.040;14.414;2022-11-20T09:33:17;20.52;;;9.13;;
45760;SDS011;31471;51.040;14.414;2022-11-20T09:38:09;18.88;;;8.20;;
45760;SDS011;31471;51.040;14.414;2022-11-20T09:40:36;18.45;;;8.73;;
45760;SDS011;31471;51.040;14.414;2022-11-20T09:54:17;22.02;;;10.07;;
45760;SDS011;31471;51.040;14.414;2022-11-20T09:57:10;23.80;;;9.40;;
45760;SDS011;31471;51.040;14.414;2022-11-20T09:59:56;24.98;;;9.05;;
45760;SDS011;31471;51.040;14.414;2022-11-20T10:05:02;24.00;;;10.18;;
45760;SDS011;31471;51.040;14.414;2022-11-20T10:07:45;22.67;;;9.63;;
45760;SDS011;31471;51.040;14.414;2022-11-20T10:10:15;23.75;;;10.88;;
45760;SDS011;31471;51.040;14.414;2022-11-20T10:15:30;20.65;;;9.50;;
45760;SDS011;31471;51.040;14.414;2022-11-20T10:21:12;20.48;;;8.68;;
45760;SDS011;31471;51.040;14.414;2022-11-20T10:26:39;21.33;;;10.30;;
45760;SDS011;31471;51.040;14.414;2022-11-20T10:29:16;23.15;;;9.88;;
45760;SDS011;31471;51.040;14.414;2022-11-20T10:31:45;24.85;;;10.80;;
45760;SDS011;31471;51.040;14.414;2022-11-20T10:34:31;19.35;;;10.10;;
45760;SDS011;31471;51.040;14.414;2022-11-20T10:37:12;18.60;;;9.50;;
45760;SDS011;31471;51.040;14.414;2022-11-20T10:39:54;20.95;;;9.57;;
45760;SDS011;31471;51.040;14.414;2022-11-20T10:42:29;24.17;;;10.18;;
45760;SDS011;31471;51.040;14.414;2022-11-20T10:45:10;22.40;;;9.73;;
45760;SDS011;31471;51.040;14.414;2022-11-20T10:47:38;17.77;;;8.05;;
45760;SDS011;31471;51.040;14.414;2022-11-20T10:50:05;23.15;;;10.10;;
45760;SDS011;31471;51.040;14.414;2022-11-20T10:55:50;22.67;;;10.75;;
45760;SDS011;31471;51.040;14.414;2022-11-20T10:58:38;23.48;;;11.40;;
45760;SDS011;31471;51.040;14.414;2022-11-20T11:01:13;26.33;;;10.68;;
45760;SDS011;31471;51.040;14.414;2022-11-20T11:03:43;26.02;;;11.35;;
45760;SDS011;31471;51.040;14.414;2022-11-20T11:06:16;26.42;;;10.75;;
45760;SDS011;31471;51.040;14.414;2022-11-20T11:08:50;20.65;;;9.65;;
45760;SDS011;31471;51.040;14.414;2022-11-20T11:11:32;20.15;;;9.43;;
45760;SDS011;31471;51.040;14.414;2022-11-20T11:14:08;22.02;;;11.38;;
45760;SDS011;31471;51.040;14.414;2022-11-20T11:16:40;22.70;;;11.13;;
45760;SDS011;31471;51.040;14.414;2022-11-20T11:19:18;20.73;;;9.77;;
45760;SDS011;31471;51.040;14.414;2022-11-20T11:21:47;21.95;;;10.55;;
45760;SDS011;31471;51.040;14.414;2022-11-20T11:24:24;24.75;;;10.25;;
45760;SDS011;31471;51.040;14.414;2022-11-20T11:26:55;24.35;;;10.63;;
45760;SDS011;31471;51.040;14.414;2022-11-20T11:29:22;24.13;;;10.60;;
45760;SDS011;31471;51.040;14.414;2022-11-20T11:31:48;22.10;;;10.73;;
45760;SDS011;31471;51.040;14.414;2022-11-20T11:34:15;24.30;;;10.57;;
45760;SDS011;31471;51.040;14.414;2022-11-20T11:36:42;21.20;;;10.02;;
45760;SDS011;31471;51.040;14.414;2022-11-20T11:39:19;25.83;;;11.10;;
45760;SDS011;31471;51.040;14.414;2022-11-20T11:41:46;24.80;;;10.23;;
45760;SDS011;31471;51.040;14.414;2022-11-20T11:44:15;21.60;;;9.30;;
45760;SDS011;31471;51.040;14.414;2022-11-20T11:47:00;21.48;;;9.77;;
45760;SDS011;31471;51.040;14.414;2022-11-20T11:49:27;23.05;;;9.30;;
45760;SDS011;31471;51.040;14.414;2022-11-20T11:54:45;23.35;;;10.23;;
45760;SDS011;31471;51.040;14.414;2022-11-20T12:00:15;23.58;;;10.05;;
45760;SDS011;31471;51.040;14.414;2022-11-20T12:02:48;22.90;;;10.45;;
45760;SDS011;31471;51.040;14.414;2022-11-20T12:05:24;23.60;;;9.13;;
45760;SDS011;31471;51.040;14.414;2022-11-20T12:13:54;16.13;;;8.32;;
45760;SDS011;31471;51.040;14.414;2022-11-20T12:16:39;17.52;;;8.18;;
45760;SDS011;31471;51.040;14.414;2022-11-20T12:19:11;17.60;;;8.15;;
45760;SDS011;31471;51.040;14.414;2022-11-20T12:27:14;15.48;;;7.35;;
45760;SDS011;31471;51.040;14.414;2022-11-20T12:30:04;17.85;;;7.63;;
45760;SDS011;31471;51.040;14.414;2022-11-20T12:32:41;17.02;;;7.40;;
45760;SDS011;31471;51.040;14.414;2022-11-20T12:41:17;15.50;;;7.63;;
45760;SDS011;31471;51.040;14.414;2022-11-20T12:47:51;18.13;;;7.72;;
45760;SDS011;31471;51.040;14.414;2022-11-20T12:53:23;19.58;;;7.78;;
45760;SDS011;31471;51.040;14.414;2022-11-20T12:58:47;23.80;;;9.73;;
45760;SDS011;31471;51.040;14.414;2022-11-20T13:02:01;20.45;;;9.90;;
45760;SDS011;31471;51.040;14.414;2022-11-20T13:07:08;18.42;;;9.18;;
45760;SDS011;31471;51.040;14.414;2022-11-20T13:09:38;22.38;;;9.77;;
45760;SDS011;31471;51.040;14.414;2022-11-20T13:12:34;23.55;;;10.80;;
45760;SDS011;31471;51.040;14.414;2022-11-20T13:18:01;25.30;;;10.35;;
45760;SDS011;31471;51.040;14.414;2022-11-20T13:20:29;22.95;;;9.90;;
45760;SDS011;31471;51.040;14.414;2022-11-20T13:22:57;25.25;;;9.60;;
45760;SDS011;31471;51.040;14.414;2022-11-20T13:27:53;16.00;;;8.35;;
45760;SDS011;31471;51.040;14.414;2022-11-20T13:30:20;19.90;;;9.35;;
45760;SDS011;31471;51.040;14.414;2022-11-20T13:32:57;24.48;;;10.07;;
45760;SDS011;31471;51.040;14.414;2022-11-20T13:38:09;22.92;;;10.65;;
45760;SDS011;31471;51.040;14.414;2022-11-20T13:40:37;24.83;;;10.20;;
45760;SDS011;31471;51.040;14.414;2022-11-20T13:45:40;21.95;;;10.23;;
45760;SDS011;31471;51.040;14.414;2022-11-20T13:48:23;27.30;;;10.73;;
45760;SDS011;31471;51.040;14.414;2022-11-20T13:57:05;30.08;;;12.07;;
45760;SDS011;31471;51.040;14.414;2022-11-20T14:02:36;26.00;;;11.02;;
45760;SDS011;31471;51.040;14.414;2022-11-20T14:05:02;28.45;;;11.48;;
45760;SDS011;31471;51.040;14.414;2022-11-20T14:07:34;31.00;;;11.80;;
45760;SDS011;31471;51.040;14.414;2022-11-20T14:10:04;22.90;;;11.25;;
45760;SDS011;31471;51.040;14.414;2022-11-20T14:14:57;30.20;;;12.13;;
45760;SDS011;31471;51.040;14.414;2022-11-20T14:17:29;36.65;;;14.35;;
45760;SDS011;31471;51.040;14.414;2022-11-20T14:20:01;25.70;;;11.43;;
45760;SDS011;31471;51.040;14.414;2022-11-20T14:22:39;32.78;;;13.80;;
45760;SDS011;31471;51.040;14.414;2022-11-20T14:27:40;27.33;;;12.20;;
45760;SDS011;31471;51.040;14.414;2022-11-20T14:30:12;29.95;;;13.30;;
45760;SDS011;31471;51.040;14.414;2022-11-20T14:32:40;31.25;;;13.73;;
45760;SDS011;31471;51.040;14.414;2022-11-20T14:35:08;27.58;;;12.40;;
45760;SDS011;31471;51.040;14.414;2022-11-20T14:37:39;28.38;;;13.05;;
45760;SDS011;31471;51.040;14.414;2022-11-20T14:40:48;31.67;;;13.65;;
45760;SDS011;31471;51.040;14.414;2022-11-20T14:42:58;30.15;;;13.35;;
45760;SDS011;31471;51.040;14.414;2022-11-20T14:45:24;25.67;;;12.27;;
45760;SDS011;31471;51.040;14.414;2022-11-20T14:47:51;29.20;;;11.68;;
45760;SDS011;31471;51.040;14.414;2022-11-20T14:50:24;29.60;;;12.23;;
45760;SDS011;31471;51.040;14.414;2022-11-20T14:52:55;26.70;;;12.82;;
45760;SDS011;31471;51.040;14.414;2022-11-20T14:55:40;31.67;;;13.45;;
45760;SDS011;31471;51.040;14.414;2022-11-20T14:58:18;33.78;;;13.35;;
45760;SDS011;31471;51.040;14.414;2022-11-20T15:00:56;29.67;;;12.20;;
45760;SDS011;31471;51.040;14.414;2022-11-20T15:03:33;27.65;;;12.38;;
45760;SDS011;31471;51.040;14.414;2022-11-20T15:06:03;28.55;;;13.52;;
45760;SDS011;31471;51.040;14.414;2022-11-20T15:08:30;33.17;;;13.35;;
45760;SDS011;31471;51.040;14.414;2022-11-20T15:10:56;26.23;;;13.48;;
45760;SDS011;31471;51.040;14.414;2022-11-20T15:15:52;33.08;;;14.90;;
45760;SDS011;31471;51.040;14.414;2022-11-20T15:18:23;33.83;;;14.15;;
45760;SDS011;31471;51.040;14.414;2022-11-20T15:20:54;38.40;;;15.48;;
45760;SDS011;31471;51.040;14.414;2022-11-20T15:23:21;30.92;;;15.18;;
45760;SDS011;31471;51.040;14.414;2022-11-20T15:25:47;32.83;;;14.75;;
45760;SDS011;31471;51.040;14.414;2022-11-20T15:30:44;31.20;;;13.68;;
45760;SDS011;31471;51.040;14.414;2022-11-20T15:33:11;36.33;;;14.95;;
45760;SDS011;31471;51.040;14.414;2022-11-20T15:35:38;42.13;;;17.95;;
45760;SDS011;31471;51.040;14.414;2022-11-20T15:38:04;39.40;;;18.10;;
45760;SDS011;31471;51.040;14.414;2022-11-20T15:40:31;41.35;;;16.65;;
45760;SDS011;31471;51.040;14.414;2022-11-20T15:45:28;38.63;;;16.42;;
45760;SDS011;31471;51.040;14.414;2022-11-20T15:47:58;38.65;;;17.75;;
45760;SDS011;31471;51.040;14.414;2022-11-20T15:50:30;45.13;;;19.40;;
45760;SDS011;31471;51.040;14.414;2022-11-20T15:53:01;41.80;;;19.88;;
45760;SDS011;31471;51.040;14.414;2022-11-20T15:55:26;39.40;;;18.30;;
45760;SDS011;31471;51.040;14.414;2022-11-20T15:57:52;41.67;;;19.55;;
45760;SDS011;31471;51.040;14.414;2022-11-20T16:00:18;44.00;;;19.10;;
45760;SDS011;31471;51.040;14.414;2022-11-20T16:02:44;43.95;;;20.77;;
45760;SDS011;31471;51.040;14.414;2022-11-20T16:05:10;37.30;;;18.38;;
45760;SDS011;31471;51.040;14.414;2022-11-20T16:07:37;36.35;;;16.95;;
45760;SDS011;31471;51.040;14.414;2022-11-20T16:10:02;36.50;;;16.50;;
45760;SDS011;31471;51.040;14.414;2022-11-20T16:12:28;36.35;;;17.15;;
45760;SDS011;31471;51.040;14.414;2022-11-20T16:15:12;36.40;;;17.38;;
45760;SDS011;31471;51.040;14.414;2022-11-20T16:17:57;43.78;;;19.52;;
45760;SDS011;31471;51.040;14.414;2022-11-20T16:20:22;46.88;;;19.98;;
45760;SDS011;31471;51.040;14.414;2022-11-20T16:22:48;42.58;;;18.00;;
45760;SDS011;31471;51.040;14.414;2022-11-20T16:25:13;43.30;;;19.50;;
45760;SDS011;31471;51.040;14.414;2022-11-20T16:27:39;43.72;;;19.92;;
45760;SDS011;31471;51.040;14.414;2022-11-20T16:30:05;42.08;;;19.92;;
45760;SDS011;31471;51.040;14.414;2022-11-20T16:32:31;37.25;;;17.35;;
45760;SDS011;31471;51.040;14.414;2022-11-20T16:34:57;34.60;;;16.13;;
45760;SDS011;31471;51.040;14.414;2022-11-20T16:37:22;38.92;;;16.95;;
45760;SDS011;31471;51.040;14.414;2022-11-20T16:39:48;36.97;;;16.48;;
45760;SDS011;31471;51.040;14.414;2022-11-20T16:42:14;44.60;;;17.70;;
45760;SDS011;31471;51.040;14.414;2022-11-20T16:44:39;42.15;;;17.77;;
45760;SDS011;31471;51.040;14.414;2022-11-20T16:47:05;44.55;;;21.05;;
45760;SDS011;31471;51.040;14.414;2022-11-20T16:49:31;30.83;;;14.88;;
45760;SDS011;31471;51.040;14.414;2022-11-20T16:54:23;36.38;;;13.60;;
45760;SDS011;31471;51.040;14.414;2022-11-20T16:56:49;32.72;;;14.18;;
45760;SDS011;31471;51.040;14.414;2022-11-20T16:59:15;32.75;;;15.68;;
45760;SDS011;31471;51.040;14.414;2022-11-20T17:04:07;28.50;;;14.02;;
45760;SDS011;31471;51.040;14.414;2022-11-20T17:06:37;35.58;;;16.15;;
45760;SDS011;31471;51.040;14.414;2022-11-20T17:09:05;37.97;;;15.73;;
45760;SDS011;31471;51.040;14.414;2022-11-20T17:11:33;39.70;;;17.08;;
45760;SDS011;31471;51.040;14.414;2022-11-20T17:13:59;35.88;;;16.35;;
45760;SDS011;31471;51.040;14.414;2022-11-20T17:16:31;32.97;;;14.15;;
45760;SDS011;31471;51.040;14.414;2022-11-20T17:18:57;38.10;;;17.88;;
45760;SDS011;31471;51.040;14.414;2022-11-20T17:23:49;39.35;;;15.48;;
45760;SDS011;31471;51.040;14.414;2022-11-20T17:26:16;41.67;;;15.57;;
45760;SDS011;31471;51.040;14.414;2022-11-20T17:29:00;30.85;;;15.23;;
45760;SDS011;31471;51.040;14.414;2022-11-20T17:31:30;32.38;;;14.52;;
45760;SDS011;31471;51.040;14.414;2022-11-20T17:33:58;36.05;;;16.50;;
45760;SDS011;31471;51.040;14.414;2022-11-20T17:36:24;40.03;;;16.50;;
45760;SDS011;31471;51.040;14.414;2022-11-20T17:38:50;36.05;;;16.38;;
45760;SDS011;31471;51.040;14.414;2022-11-20T17:41:18;37.15;;;15.77;;
45760;SDS011;31471;51.040;14.414;2022-11-20T17:43:46;34.60;;;16.08;;
45760;SDS011;31471;51.040;14.414;2022-11-20T17:46:16;40.03;;;17.13;;
45760;SDS011;31471;51.040;14.414;2022-11-20T17:48:43;48.20;;;19.85;;
45760;SDS011;31471;51.040;14.414;2022-11-20T17:51:10;46.78;;;19.50;;
45760;SDS011;31471;51.040;14.414;2022-11-20T17:53:38;36.88;;;16.27;;
45760;SDS011;31471;51.040;14.414;2022-11-20T17:56:05;36.20;;;15.73;;
45760;SDS011;31471;51.040;14.414;2022-11-20T17:58:49;35.95;;;16.20;;
45760;SDS011;31471;51.040;14.414;2022-11-20T18:01:15;44.38;;;16.85;;
45760;SDS011;31471;51.040;14.414;2022-11-20T18:03:41;37.63;;;16.88;;
45760;SDS011;31471;51.040;14.414;2022-11-20T18:06:08;35.75;;;14.63;;
45760;SDS011;31471;51.040;14.414;2022-11-20T18:08:35;41.85;;;16.48;;
45760;SDS011;31471;51.040;14.414;2022-11-20T18:11:14;36.40;;;15.43;;
45760;SDS011;31471;51.040;14.414;2022-11-20T18:13:42;37.53;;;14.95;;
45760;SDS011;31471;51.040;14.414;2022-11-20T18:16:29;35.38;;;15.68;;
45760;SDS011;31471;51.040;14.414;2022-11-20T18:18:56;34.10;;;15.68;;
45760;SDS011;31471;51.040;14.414;2022-11-20T18:21:23;79.50;;;28.83;;
45760;SDS011;31471;51.040;14.414;2022-11-20T18:23:50;164.40;;;66.65;;
45760;SDS011;31471;51.040;14.414;2022-11-20T18:26:16;184.38;;;75.10;;
45760;SDS011;31471;51.040;14.414;2022-11-20T18:28:43;166.65;;;64.75;;
45760;SDS011;31471;51.040;14.414;2022-11-20T18:31:10;130.38;;;58.17;;
45760;SDS011;31471;51.040;14.414;2022-11-20T18:33:36;79.72;;;32.85;;
45760;SDS011;31471;51.040;14.414;2022-11-20T18:36:12;58.85;;;23.48;;
45760;SDS011;31471;51.040;14.414;2022-11-20T18:38:43;62.22;;;26.67;;
45760;SDS011;31471;51.040;14.414;2022-11-20T18:41:10;49.60;;;22.30;;